sensor_id;sensor_type;location;lat;lon;timestamp;P1;durP1;ratioP1;P2;durP2;ratioP2
72941;SDS011;69665;55.822;37.330;2023-12-28T00:00:50;5.82;;;2.10;;
72941;SDS011;69665;55.822;37.330;2023-12-28T00:03:16;5.15;;;1.67;;
72941;SDS011;69665;55.822;37.330;2023-12-28T00:05:42;5.57;;;1.58;;
72941;SDS011;69665;55.822;37.330;2023-12-28T00:08:07;6.38;;;1.73;;
72941;SDS011;69665;55.822;37.330;2023-12-28T00:10:33;4.75;;;1.58;;
72941;SDS011;69665;55.822;37.330;2023-12-28T00:12:58;5.20;;;1.75;;
72941;SDS011;69665;55.822;37.330;2023-12-28T00:15:24;3.75;;;1.20;;
72941;SDS011;69665;55.822;37.330;2023-12-28T00:17:49;4.20;;;1.55;;
72941;SDS011;69665;55.822;37.330;2023-12-28T00:20:15;7.00;;;2.00;;
72941;SDS011;69665;55.822;37.330;2023-12-28T00:22:40;4.85;;;1.77;;
72941;SDS011;69665;55.822;37.330;2023-12-28T00:25:06;3.60;;;1.33;;
72941;SDS011;69665;55.822;37.330;2023-12-28T00:27:32;3.80;;;1.33;;
72941;SDS011;69665;55.822;37.330;2023-12-28T00:30:00;6.28;;;1.42;;
72941;SDS011;69665;55.822;37.330;2023-12-28T00:32:30;4.57;;;1.42;;
72941;SDS011;69665;55.822;37.330;2023-12-28T00:34:55;3.95;;;1.38;;
72941;SDS011;69665;55.822;37.330;2023-12-28T00:37:21;4.35;;;1.38;;
72941;SDS011;69665;55.822;37.330;2023-12-28T00:39:46;4.03;;;1.42;;
72941;SDS011;69665;55.822;37.330;2023-12-28T00:42:17;4.03;;;1.48;;
72941;SDS011;69665;55.822;37.330;2023-12-28T00:44:44;4.65;;;1.30;;
72941;SDS011;69665;55.822;37.330;2023-12-28T00:47:10;4.82;;;1.70;;
72941;SDS011;69665;55.822;37.330;2023-12-28T00:49:37;4.40;;;1.17;;
72941;SDS011;69665;55.822;37.330;2023-12-28T00:52:02;3.97;;;1.52;;
72941;SDS011;69665;55.822;37.330;2023-12-28T00:54:30;4.25;;;1.40;;
72941;SDS011;69665;55.822;37.330;2023-12-28T00:56:56;4.38;;;1.20;;
72941;SDS011;69665;55.822;37.330;2023-12-28T00:59:21;3.15;;;1.33;;
72941;SDS011;69665;55.822;37.330;2023-12-28T01:01:47;3.72;;;1.20;;
72941;SDS011;69665;55.822;37.330;2023-12-28T01:04:12;4.88;;;1.40;;
72941;SDS011;69665;55.822;37.330;2023-12-28T01:06:38;5.00;;;1.35;;
72941;SDS011;69665;55.822;37.330;2023-12-28T01:09:05;4.57;;;1.20;;
72941;SDS011;69665;55.822;37.330;2023-12-28T01:11:32;4.03;;;1.15;;
72941;SDS011;69665;55.822;37.330;2023-12-28T01:13:57;4.22;;;1.20;;
72941;SDS011;69665;55.822;37.330;2023-12-28T01:16:24;4.95;;;1.45;;
72941;SDS011;69665;55.822;37.330;2023-12-28T01:18:49;3.92;;;1.30;;
72941;SDS011;69665;55.822;37.330;2023-12-28T01:21:15;3.67;;;1.55;;
72941;SDS011;69665;55.822;37.330;2023-12-28T01:23:41;4.68;;;1.42;;
72941;SDS011;69665;55.822;37.330;2023-12-28T01:26:11;2.95;;;1.20;;
72941;SDS011;69665;55.822;37.330;2023-12-28T01:28:39;6.55;;;1.95;;
72941;SDS011;69665;55.822;37.330;2023-12-28T01:31:05;3.80;;;1.13;;
72941;SDS011;69665;55.822;37.330;2023-12-28T01:33:30;3.78;;;1.00;;
72941;SDS011;69665;55.822;37.330;2023-12-28T01:35:56;2.58;;;0.80;;
72941;SDS011;69665;55.822;37.330;2023-12-28T01:38:21;3.58;;;1.30;;
72941;SDS011;69665;55.822;37.330;2023-12-28T01:40:47;4.05;;;1.23;;
72941;SDS011;69665;55.822;37.330;2023-12-28T01:43:14;3.50;;;1.10;;
72941;SDS011;69665;55.822;37.330;2023-12-28T01:45:44;6.00;;;1.67;;
72941;SDS011;69665;55.822;37.330;2023-12-28T01:48:10;4.95;;;1.40;;
72941;SDS011;69665;55.822;37.330;2023-12-28T01:50:36;4.57;;;1.60;;
72941;SDS011;69665;55.822;37.330;2023-12-28T01:53:02;4.68;;;1.50;;
72941;SDS011;69665;55.822;37.330;2023-12-28T01:55:29;3.65;;;1.20;;
72941;SDS011;69665;55.822;37.330;2023-12-28T01:57:57;3.97;;;1.67;;
72941;SDS011;69665;55.822;37.330;2023-12-28T02:00:23;4.57;;;1.70;;
72941;SDS011;69665;55.822;37.330;2023-12-28T02:02:50;6.50;;;1.92;;
72941;SDS011;69665;55.822;37.330;2023-12-28T02:05:17;5.80;;;1.80;;
72941;SDS011;69665;55.822;37.330;2023-12-28T02:07:44;3.42;;;1.42;;
72941;SDS011;69665;55.822;37.330;2023-12-28T02:10:10;3.67;;;1.30;;
72941;SDS011;69665;55.822;37.330;2023-12-28T02:12:36;5.75;;;1.63;;
72941;SDS011;69665;55.822;37.330;2023-12-28T02:15:02;6.28;;;2.00;;
72941;SDS011;69665;55.822;37.330;2023-12-28T02:17:36;8.25;;;2.38;;
72941;SDS011;69665;55.822;37.330;2023-12-28T02:20:27;5.15;;;2.00;;
72941;SDS011;69665;55.822;37.330;2023-12-28T02:22:55;6.82;;;1.85;;
72941;SDS011;69665;55.822;37.330;2023-12-28T02:25:21;11.00;;;3.28;;
72941;SDS011;69665;55.822;37.330;2023-12-28T02:27:48;9.75;;;2.53;;
72941;SDS011;69665;55.822;37.330;2023-12-28T02:30:18;7.07;;;2.33;;
72941;SDS011;69665;55.822;37.330;2023-12-28T02:35:34;7.82;;;2.30;;
72941;SDS011;69665;55.822;37.330;2023-12-28T02:38:05;8.15;;;2.25;;
72941;SDS011;69665;55.822;37.330;2023-12-28T02:40:36;5.40;;;1.80;;
72941;SDS011;69665;55.822;37.330;2023-12-28T02:43:06;5.68;;;1.80;;
72941;SDS011;69665;55.822;37.330;2023-12-28T02:45:33;5.43;;;2.15;;
72941;SDS011;69665;55.822;37.330;2023-12-28T02:47:59;4.75;;;1.60;;
72941;SDS011;69665;55.822;37.330;2023-12-28T02:50:25;3.60;;;1.38;;
72941;SDS011;69665;55.822;37.330;2023-12-28T02:52:51;4.22;;;1.38;;
72941;SDS011;69665;55.822;37.330;2023-12-28T02:55:16;4.07;;;1.73;;
72941;SDS011;69665;55.822;37.330;2023-12-28T02:57:44;3.78;;;1.35;;
72941;SDS011;69665;55.822;37.330;2023-12-28T03:00:10;3.63;;;1.35;;
72941;SDS011;69665;55.822;37.330;2023-12-28T03:02:36;5.95;;;1.48;;
72941;SDS011;69665;55.822;37.330;2023-12-28T03:05:05;2.85;;;1.10;;
72941;SDS011;69665;55.822;37.330;2023-12-28T03:07:31;3.95;;;1.00;;
72941;SDS011;69665;55.822;37.330;2023-12-28T03:09:58;4.00;;;1.50;;
72941;SDS011;69665;55.822;37.330;2023-12-28T03:12:24;4.28;;;1.15;;
72941;SDS011;69665;55.822;37.330;2023-12-28T03:14:50;2.97;;;1.20;;
72941;SDS011;69665;55.822;37.330;2023-12-28T03:17:16;4.63;;;1.48;;
72941;SDS011;69665;55.822;37.330;2023-12-28T03:19:41;3.92;;;1.25;;
72941;SDS011;69665;55.822;37.330;2023-12-28T03:22:07;3.67;;;1.20;;
72941;SDS011;69665;55.822;37.330;2023-12-28T03:24:32;3.13;;;1.27;;
72941;SDS011;69665;55.822;37.330;2023-12-28T03:26:58;4.70;;;1.38;;
72941;SDS011;69665;55.822;37.330;2023-12-28T03:29:26;3.72;;;1.30;;
72941;SDS011;69665;55.822;37.330;2023-12-28T03:31:52;4.47;;;1.33;;
72941;SDS011;69665;55.822;37.330;2023-12-28T03:34:17;4.32;;;1.40;;
72941;SDS011;69665;55.822;37.330;2023-12-28T03:36:43;4.05;;;1.42;;
72941;SDS011;69665;55.822;37.330;2023-12-28T03:39:09;4.78;;;1.42;;
72941;SDS011;69665;55.822;37.330;2023-12-28T03:41:34;3.65;;;1.50;;
72941;SDS011;69665;55.822;37.330;2023-12-28T03:44:00;3.65;;;1.10;;
72941;SDS011;69665;55.822;37.330;2023-12-28T03:46:26;3.55;;;1.20;;
72941;SDS011;69665;55.822;37.330;2023-12-28T03:48:52;6.43;;;1.52;;
72941;SDS011;69665;55.822;37.330;2023-12-28T03:51:18;4.32;;;1.65;;
72941;SDS011;69665;55.822;37.330;2023-12-28T03:53:44;3.45;;;1.42;;
72941;SDS011;69665;55.822;37.330;2023-12-28T03:56:23;4.55;;;1.80;;
72941;SDS011;69665;55.822;37.330;2023-12-28T03:58:53;5.95;;;1.88;;
72941;SDS011;69665;55.822;37.330;2023-12-28T04:01:21;5.68;;;1.80;;
72941;SDS011;69665;55.822;37.330;2023-12-28T04:03:49;4.13;;;1.83;;
72941;SDS011;69665;55.822;37.330;2023-12-28T04:06:15;5.00;;;1.70;;
72941;SDS011;69665;55.822;37.330;2023-12-28T04:08:41;3.65;;;1.35;;
72941;SDS011;69665;55.822;37.330;2023-12-28T04:11:07;3.88;;;1.52;;
72941;SDS011;69665;55.822;37.330;2023-12-28T04:13:34;4.10;;;1.45;;
72941;SDS011;69665;55.822;37.330;2023-12-28T04:16:00;4.68;;;1.55;;
72941;SDS011;69665;55.822;37.330;2023-12-28T04:18:26;5.20;;;1.50;;
72941;SDS011;69665;55.822;37.330;2023-12-28T04:20:52;5.00;;;1.50;;
72941;SDS011;69665;55.822;37.330;2023-12-28T04:23:18;4.38;;;1.50;;
72941;SDS011;69665;55.822;37.330;2023-12-28T04:25:43;3.97;;;1.60;;
72941;SDS011;69665;55.822;37.330;2023-12-28T04:28:09;4.25;;;1.58;;
72941;SDS011;69665;55.822;37.330;2023-12-28T04:30:35;3.88;;;1.52;;
72941;SDS011;69665;55.822;37.330;2023-12-28T04:33:01;3.88;;;1.42;;
72941;SDS011;69665;55.822;37.330;2023-12-28T04:35:26;3.25;;;1.38;;
72941;SDS011;69665;55.822;37.330;2023-12-28T04:37:52;4.60;;;1.30;;
72941;SDS011;69665;55.822;37.330;2023-12-28T04:40:18;6.40;;;1.63;;
72941;SDS011;69665;55.822;37.330;2023-12-28T04:42:43;3.63;;;1.17;;
72941;SDS011;69665;55.822;37.330;2023-12-28T04:45:09;3.38;;;1.25;;
72941;SDS011;69665;55.822;37.330;2023-12-28T04:47:38;3.95;;;1.30;;
72941;SDS011;69665;55.822;37.330;2023-12-28T04:50:04;6.03;;;1.55;;
72941;SDS011;69665;55.822;37.330;2023-12-28T04:52:31;4.07;;;1.30;;
72941;SDS011;69665;55.822;37.330;2023-12-28T04:54:57;5.50;;;1.50;;
72941;SDS011;69665;55.822;37.330;2023-12-28T04:57:23;3.53;;;1.23;;
72941;SDS011;69665;55.822;37.330;2023-12-28T04:59:51;4.13;;;1.35;;
72941;SDS011;69665;55.822;37.330;2023-12-28T05:02:18;5.03;;;1.40;;
72941;SDS011;69665;55.822;37.330;2023-12-28T05:04:44;3.72;;;0.85;;
72941;SDS011;69665;55.822;37.330;2023-12-28T05:07:12;4.13;;;1.52;;
72941;SDS011;69665;55.822;37.330;2023-12-28T05:09:38;4.13;;;1.65;;
72941;SDS011;69665;55.822;37.330;2023-12-28T05:12:04;4.22;;;1.35;;
72941;SDS011;69665;55.822;37.330;2023-12-28T05:14:30;4.05;;;1.73;;
72941;SDS011;69665;55.822;37.330;2023-12-28T05:16:56;5.25;;;1.83;;
72941;SDS011;69665;55.822;37.330;2023-12-28T05:19:22;4.72;;;1.45;;
72941;SDS011;69665;55.822;37.330;2023-12-28T05:21:47;4.20;;;1.33;;
72941;SDS011;69665;55.822;37.330;2023-12-28T05:24:13;5.22;;;1.67;;
72941;SDS011;69665;55.822;37.330;2023-12-28T05:26:39;3.97;;;1.00;;
72941;SDS011;69665;55.822;37.330;2023-12-28T05:29:05;4.68;;;1.60;;
72941;SDS011;69665;55.822;37.330;2023-12-28T05:31:30;4.90;;;1.20;;
72941;SDS011;69665;55.822;37.330;2023-12-28T05:33:56;3.80;;;1.20;;
72941;SDS011;69665;55.822;37.330;2023-12-28T05:36:24;4.22;;;1.58;;
72941;SDS011;69665;55.822;37.330;2023-12-28T05:38:50;3.88;;;1.55;;
72941;SDS011;69665;55.822;37.330;2023-12-28T05:41:16;4.47;;;1.75;;
72941;SDS011;69665;55.822;37.330;2023-12-28T05:43:42;3.95;;;1.40;;
72941;SDS011;69665;55.822;37.330;2023-12-28T05:46:08;6.13;;;1.55;;
72941;SDS011;69665;55.822;37.330;2023-12-28T05:48:33;5.03;;;1.30;;
72941;SDS011;69665;55.822;37.330;2023-12-28T05:50:59;3.65;;;1.42;;
72941;SDS011;69665;55.822;37.330;2023-12-28T05:53:25;4.53;;;1.80;;
72941;SDS011;69665;55.822;37.330;2023-12-28T05:55:52;3.47;;;1.40;;
72941;SDS011;69665;55.822;37.330;2023-12-28T05:58:18;5.65;;;1.50;;
72941;SDS011;69665;55.822;37.330;2023-12-28T06:00:43;4.40;;;1.40;;
72941;SDS011;69665;55.822;37.330;2023-12-28T06:03:09;4.90;;;1.63;;
72941;SDS011;69665;55.822;37.330;2023-12-28T06:05:34;4.93;;;1.35;;
72941;SDS011;69665;55.822;37.330;2023-12-28T06:08:00;4.30;;;1.58;;
72941;SDS011;69665;55.822;37.330;2023-12-28T06:10:25;3.97;;;1.67;;
72941;SDS011;69665;55.822;37.330;2023-12-28T06:12:51;4.50;;;1.98;;
72941;SDS011;69665;55.822;37.330;2023-12-28T06:15:17;5.50;;;1.65;;
72941;SDS011;69665;55.822;37.330;2023-12-28T06:17:43;4.60;;;1.50;;
72941;SDS011;69665;55.822;37.330;2023-12-28T06:20:08;5.82;;;2.05;;
72941;SDS011;69665;55.822;37.330;2023-12-28T06:22:38;4.50;;;1.80;;
72941;SDS011;69665;55.822;37.330;2023-12-28T06:25:03;4.35;;;1.65;;
72941;SDS011;69665;55.822;37.330;2023-12-28T06:27:31;6.10;;;2.20;;
72941;SDS011;69665;55.822;37.330;2023-12-28T06:29:57;4.03;;;1.75;;
72941;SDS011;69665;55.822;37.330;2023-12-28T06:32:23;5.13;;;2.15;;
72941;SDS011;69665;55.822;37.330;2023-12-28T06:34:48;4.85;;;1.98;;
72941;SDS011;69665;55.822;37.330;2023-12-28T06:37:14;3.65;;;1.40;;
72941;SDS011;69665;55.822;37.330;2023-12-28T06:39:40;3.95;;;1.63;;
72941;SDS011;69665;55.822;37.330;2023-12-28T06:42:09;4.63;;;1.77;;
72941;SDS011;69665;55.822;37.330;2023-12-28T06:44:34;3.95;;;1.48;;
72941;SDS011;69665;55.822;37.330;2023-12-28T06:47:00;5.85;;;1.63;;
72941;SDS011;69665;55.822;37.330;2023-12-28T06:49:25;6.55;;;1.90;;
72941;SDS011;69665;55.822;37.330;2023-12-28T06:51:51;3.70;;;1.42;;
72941;SDS011;69665;55.822;37.330;2023-12-28T06:54:17;4.43;;;1.65;;
72941;SDS011;69665;55.822;37.330;2023-12-28T06:56:43;6.38;;;2.10;;
72941;SDS011;69665;55.822;37.330;2023-12-28T06:59:09;4.18;;;1.70;;
72941;SDS011;69665;55.822;37.330;2023-12-28T07:01:38;3.92;;;1.50;;
72941;SDS011;69665;55.822;37.330;2023-12-28T07:04:04;3.85;;;1.45;;
72941;SDS011;69665;55.822;37.330;2023-12-28T07:06:30;4.95;;;1.60;;
72941;SDS011;69665;55.822;37.330;2023-12-28T07:08:56;5.75;;;1.38;;
72941;SDS011;69665;55.822;37.330;2023-12-28T07:11:21;4.28;;;1.48;;
72941;SDS011;69665;55.822;37.330;2023-12-28T07:13:48;5.32;;;2.35;;
72941;SDS011;69665;55.822;37.330;2023-12-28T07:16:13;4.13;;;1.50;;
72941;SDS011;69665;55.822;37.330;2023-12-28T07:18:39;4.72;;;1.50;;
72941;SDS011;69665;55.822;37.330;2023-12-28T07:21:05;6.18;;;1.60;;
72941;SDS011;69665;55.822;37.330;2023-12-28T07:23:34;4.93;;;1.88;;
72941;SDS011;69665;55.822;37.330;2023-12-28T07:26:00;4.60;;;1.52;;
72941;SDS011;69665;55.822;37.330;2023-12-28T07:28:25;4.15;;;1.30;;
72941;SDS011;69665;55.822;37.330;2023-12-28T07:30:51;5.25;;;1.48;;
72941;SDS011;69665;55.822;37.330;2023-12-28T07:33:16;4.40;;;1.40;;
72941;SDS011;69665;55.822;37.330;2023-12-28T07:35:42;4.85;;;1.30;;
72941;SDS011;69665;55.822;37.330;2023-12-28T07:38:07;4.43;;;1.42;;
72941;SDS011;69665;55.822;37.330;2023-12-28T07:40:33;3.15;;;1.17;;
72941;SDS011;69665;55.822;37.330;2023-12-28T07:42:59;2.83;;;1.02;;
72941;SDS011;69665;55.822;37.330;2023-12-28T07:45:26;2.78;;;1.10;;
72941;SDS011;69665;55.822;37.330;2023-12-28T07:47:52;2.78;;;1.10;;
72941;SDS011;69665;55.822;37.330;2023-12-28T07:50:18;3.85;;;1.48;;
72941;SDS011;69665;55.822;37.330;2023-12-28T07:52:44;3.53;;;1.23;;
72941;SDS011;69665;55.822;37.330;2023-12-28T07:55:10;3.90;;;1.20;;
72941;SDS011;69665;55.822;37.330;2023-12-28T07:57:36;3.10;;;1.17;;
72941;SDS011;69665;55.822;37.330;2023-12-28T08:00:02;2.90;;;1.00;;
72941;SDS011;69665;55.822;37.330;2023-12-28T08:02:30;4.72;;;1.25;;
72941;SDS011;69665;55.822;37.330;2023-12-28T08:04:56;4.15;;;1.10;;
72941;SDS011;69665;55.822;37.330;2023-12-28T08:07:22;4.43;;;1.25;;
72941;SDS011;69665;55.822;37.330;2023-12-28T08:09:47;5.18;;;1.33;;
72941;SDS011;69665;55.822;37.330;2023-12-28T08:12:13;4.30;;;1.10;;
72941;SDS011;69665;55.822;37.330;2023-12-28T08:14:38;2.67;;;1.15;;
72941;SDS011;69665;55.822;37.330;2023-12-28T08:17:04;4.40;;;1.35;;
72941;SDS011;69665;55.822;37.330;2023-12-28T08:19:30;3.30;;;1.30;;
72941;SDS011;69665;55.822;37.330;2023-12-28T08:21:55;4.00;;;1.42;;
72941;SDS011;69665;55.822;37.330;2023-12-28T08:24:21;3.10;;;1.05;;
72941;SDS011;69665;55.822;37.330;2023-12-28T08:26:46;2.53;;;0.98;;
72941;SDS011;69665;55.822;37.330;2023-12-28T08:29:12;4.65;;;1.42;;
72941;SDS011;69665;55.822;37.330;2023-12-28T08:31:38;3.40;;;1.30;;
72941;SDS011;69665;55.822;37.330;2023-12-28T08:34:04;3.85;;;1.38;;
72941;SDS011;69665;55.822;37.330;2023-12-28T08:36:30;3.58;;;1.30;;
72941;SDS011;69665;55.822;37.330;2023-12-28T08:38:55;3.22;;;1.05;;
72941;SDS011;69665;55.822;37.330;2023-12-28T08:41:21;3.75;;;1.40;;
72941;SDS011;69665;55.822;37.330;2023-12-28T08:43:52;4.40;;;1.55;;
72941;SDS011;69665;55.822;37.330;2023-12-28T08:46:21;4.53;;;1.80;;
72941;SDS011;69665;55.822;37.330;2023-12-28T08:48:47;4.85;;;1.55;;
72941;SDS011;69665;55.822;37.330;2023-12-28T08:51:13;4.18;;;1.75;;
72941;SDS011;69665;55.822;37.330;2023-12-28T08:53:39;4.18;;;1.55;;
72941;SDS011;69665;55.822;37.330;2023-12-28T08:56:26;4.25;;;1.52;;
72941;SDS011;69665;55.822;37.330;2023-12-28T08:58:51;6.43;;;2.13;;
72941;SDS011;69665;55.822;37.330;2023-12-28T09:01:23;6.57;;;2.05;;
72941;SDS011;69665;55.822;37.330;2023-12-28T09:03:51;5.25;;;1.92;;
72941;SDS011;69665;55.822;37.330;2023-12-28T09:06:17;5.43;;;1.67;;
72941;SDS011;69665;55.822;37.330;2023-12-28T09:08:50;4.43;;;1.77;;
72941;SDS011;69665;55.822;37.330;2023-12-28T09:11:17;4.60;;;1.95;;
72941;SDS011;69665;55.822;37.330;2023-12-28T09:13:43;4.00;;;1.40;;
72941;SDS011;69665;55.822;37.330;2023-12-28T09:16:10;5.28;;;1.73;;
72941;SDS011;69665;55.822;37.330;2023-12-28T09:18:36;5.93;;;1.65;;
72941;SDS011;69665;55.822;37.330;2023-12-28T09:21:03;4.32;;;1.80;;
72941;SDS011;69665;55.822;37.330;2023-12-28T09:23:30;5.20;;;1.40;;
72941;SDS011;69665;55.822;37.330;2023-12-28T09:25:57;5.95;;;1.70;;
72941;SDS011;69665;55.822;37.330;2023-12-28T09:28:28;3.83;;;1.60;;
72941;SDS011;69665;55.822;37.330;2023-12-28T09:30:54;3.60;;;1.48;;
72941;SDS011;69665;55.822;37.330;2023-12-28T09:33:20;4.05;;;1.58;;
72941;SDS011;69665;55.822;37.330;2023-12-28T09:35:46;5.60;;;1.65;;
72941;SDS011;69665;55.822;37.330;2023-12-28T09:38:12;4.85;;;1.58;;
72941;SDS011;69665;55.822;37.330;2023-12-28T09:40:37;4.68;;;1.80;;
72941;SDS011;69665;55.822;37.330;2023-12-28T09:43:13;4.00;;;1.50;;
72941;SDS011;69665;55.822;37.330;2023-12-28T09:45:45;5.63;;;2.03;;
72941;SDS011;69665;55.822;37.330;2023-12-28T09:48:12;5.00;;;1.80;;
72941;SDS011;69665;55.822;37.330;2023-12-28T09:50:41;4.22;;;1.50;;
72941;SDS011;69665;55.822;37.330;2023-12-28T09:53:06;5.88;;;1.73;;
72941;SDS011;69665;55.822;37.330;2023-12-28T09:55:32;4.88;;;1.67;;
72941;SDS011;69665;55.822;37.330;2023-12-28T09:57:57;4.78;;;1.85;;
72941;SDS011;69665;55.822;37.330;2023-12-28T10:00:26;5.05;;;1.55;;
72941;SDS011;69665;55.822;37.330;2023-12-28T10:02:51;4.47;;;1.60;;
72941;SDS011;69665;55.822;37.330;2023-12-28T10:05:17;3.65;;;1.40;;
72941;SDS011;69665;55.822;37.330;2023-12-28T10:07:43;4.38;;;1.55;;
72941;SDS011;69665;55.822;37.330;2023-12-28T10:10:10;3.95;;;1.30;;
72941;SDS011;69665;55.822;37.330;2023-12-28T10:12:38;5.65;;;1.70;;
72941;SDS011;69665;55.822;37.330;2023-12-28T10:15:04;4.57;;;1.95;;
72941;SDS011;69665;55.822;37.330;2023-12-28T10:17:32;5.60;;;1.83;;
72941;SDS011;69665;55.822;37.330;2023-12-28T10:19:59;5.03;;;1.60;;
72941;SDS011;69665;55.822;37.330;2023-12-28T10:22:31;4.18;;;1.50;;
72941;SDS011;69665;55.822;37.330;2023-12-28T10:24:57;4.57;;;1.58;;
72941;SDS011;69665;55.822;37.330;2023-12-28T10:27:25;4.05;;;1.45;;
72941;SDS011;69665;55.822;37.330;2023-12-28T10:29:55;4.43;;;1.55;;
72941;SDS011;69665;55.822;37.330;2023-12-28T10:32:24;3.70;;;1.38;;
72941;SDS011;69665;55.822;37.330;2023-12-28T10:34:51;4.72;;;1.50;;
72941;SDS011;69665;55.822;37.330;2023-12-28T10:37:18;4.68;;;1.58;;
72941;SDS011;69665;55.822;37.330;2023-12-28T10:39:48;3.25;;;1.35;;
72941;SDS011;69665;55.822;37.330;2023-12-28T10:45:09;3.88;;;1.30;;
72941;SDS011;69665;55.822;37.330;2023-12-28T10:47:37;4.47;;;1.42;;
72941;SDS011;69665;55.822;37.330;2023-12-28T10:50:04;3.33;;;1.20;;
72941;SDS011;69665;55.822;37.330;2023-12-28T10:52:31;4.75;;;1.85;;
72941;SDS011;69665;55.822;37.330;2023-12-28T10:57:53;3.80;;;1.58;;
72941;SDS011;69665;55.822;37.330;2023-12-28T11:00:22;3.15;;;1.27;;
72941;SDS011;69665;55.822;37.330;2023-12-28T11:02:53;4.80;;;1.52;;
72941;SDS011;69665;55.822;37.330;2023-12-28T11:05:23;4.00;;;1.20;;
72941;SDS011;69665;55.822;37.330;2023-12-28T11:07:51;4.90;;;1.63;;
72941;SDS011;69665;55.822;37.330;2023-12-28T11:10:26;4.05;;;1.80;;
72941;SDS011;69665;55.822;37.330;2023-12-28T11:12:54;5.30;;;2.45;;
72941;SDS011;69665;55.822;37.330;2023-12-28T11:15:22;4.22;;;1.60;;
72941;SDS011;69665;55.822;37.330;2023-12-28T11:17:49;4.00;;;1.38;;
72941;SDS011;69665;55.822;37.330;2023-12-28T11:20:15;3.88;;;1.30;;
72941;SDS011;69665;55.822;37.330;2023-12-28T11:22:41;5.82;;;1.60;;
72941;SDS011;69665;55.822;37.330;2023-12-28T11:25:17;4.43;;;1.40;;
72941;SDS011;69665;55.822;37.330;2023-12-28T11:27:45;3.28;;;1.42;;
72941;SDS011;69665;55.822;37.330;2023-12-28T11:30:13;3.50;;;1.25;;
72941;SDS011;69665;55.822;37.330;2023-12-28T11:32:43;4.20;;;1.55;;
72941;SDS011;69665;55.822;37.330;2023-12-28T11:35:12;4.30;;;1.55;;
72941;SDS011;69665;55.822;37.330;2023-12-28T11:37:45;3.80;;;1.52;;
72941;SDS011;69665;55.822;37.330;2023-12-28T11:40:17;3.65;;;1.30;;
72941;SDS011;69665;55.822;37.330;2023-12-28T11:45:15;3.13;;;1.27;;
72941;SDS011;69665;55.822;37.330;2023-12-28T11:47:42;3.95;;;1.15;;
72941;SDS011;69665;55.822;37.330;2023-12-28T11:50:08;4.32;;;1.50;;
72941;SDS011;69665;55.822;37.330;2023-12-28T11:52:34;4.55;;;1.45;;
72941;SDS011;69665;55.822;37.330;2023-12-28T11:55:00;3.58;;;1.42;;
72941;SDS011;69665;55.822;37.330;2023-12-28T11:57:29;3.63;;;1.13;;
72941;SDS011;69665;55.822;37.330;2023-12-28T11:59:58;2.42;;;0.82;;
72941;SDS011;69665;55.822;37.330;2023-12-28T12:02:25;3.65;;;1.27;;
72941;SDS011;69665;55.822;37.330;2023-12-28T12:04:55;2.72;;;1.10;;
72941;SDS011;69665;55.822;37.330;2023-12-28T12:09:49;3.40;;;0.90;;
72941;SDS011;69665;55.822;37.330;2023-12-28T12:12:15;4.00;;;1.33;;
72941;SDS011;69665;55.822;37.330;2023-12-28T12:14:45;2.55;;;1.00;;
72941;SDS011;69665;55.822;37.330;2023-12-28T12:17:10;3.13;;;1.02;;
72941;SDS011;69665;55.822;37.330;2023-12-28T12:19:37;3.00;;;1.13;;
72941;SDS011;69665;55.822;37.330;2023-12-28T12:22:03;4.53;;;1.30;;
72941;SDS011;69665;55.822;37.330;2023-12-28T12:24:28;3.28;;;1.27;;
72941;SDS011;69665;55.822;37.330;2023-12-28T12:26:56;2.97;;;1.10;;
72941;SDS011;69665;55.822;37.330;2023-12-28T12:29:22;3.67;;;1.23;;
72941;SDS011;69665;55.822;37.330;2023-12-28T12:31:48;3.80;;;1.05;;
72941;SDS011;69665;55.822;37.330;2023-12-28T12:34:17;3.78;;;1.20;;
72941;SDS011;69665;55.822;37.330;2023-12-28T12:36:43;4.53;;;1.20;;
72941;SDS011;69665;55.822;37.330;2023-12-28T12:39:09;3.20;;;1.02;;
72941;SDS011;69665;55.822;37.330;2023-12-28T12:41:36;2.13;;;0.80;;
72941;SDS011;69665;55.822;37.330;2023-12-28T12:44:05;3.33;;;1.20;;
72941;SDS011;69665;55.822;37.330;2023-12-28T12:46:35;3.75;;;1.17;;
72941;SDS011;69665;55.822;37.330;2023-12-28T12:49:01;3.38;;;1.38;;
72941;SDS011;69665;55.822;37.330;2023-12-28T12:51:28;5.25;;;1.63;;
72941;SDS011;69665;55.822;37.330;2023-12-28T12:54:00;3.05;;;1.33;;
72941;SDS011;69665;55.822;37.330;2023-12-28T12:56:28;4.03;;;1.48;;
72941;SDS011;69665;55.822;37.330;2023-12-28T12:58:55;3.38;;;1.15;;
72941;SDS011;69665;55.822;37.330;2023-12-28T13:01:22;4.60;;;1.60;;
72941;SDS011;69665;55.822;37.330;2023-12-28T13:03:49;4.53;;;1.45;;
72941;SDS011;69665;55.822;37.330;2023-12-28T13:06:15;5.22;;;1.63;;
72941;SDS011;69665;55.822;37.330;2023-12-28T13:08:41;5.10;;;1.60;;
72941;SDS011;69665;55.822;37.330;2023-12-28T13:11:07;6.25;;;2.00;;
72941;SDS011;69665;55.822;37.330;2023-12-28T13:13:33;5.72;;;1.90;;
72941;SDS011;69665;55.822;37.330;2023-12-28T13:15:59;4.20;;;1.50;;
72941;SDS011;69665;55.822;37.330;2023-12-28T13:18:24;4.20;;;1.48;;
72941;SDS011;69665;55.822;37.330;2023-12-28T13:20:50;5.32;;;2.08;;
72941;SDS011;69665;55.822;37.330;2023-12-28T13:23:15;6.32;;;2.10;;
72941;SDS011;69665;55.822;37.330;2023-12-28T13:25:41;4.47;;;2.17;;
72941;SDS011;69665;55.822;37.330;2023-12-28T13:28:07;5.00;;;2.30;;
72941;SDS011;69665;55.822;37.330;2023-12-28T13:30:33;5.22;;;2.10;;
72941;SDS011;69665;55.822;37.330;2023-12-28T13:33:02;6.88;;;2.42;;
72941;SDS011;69665;55.822;37.330;2023-12-28T13:35:31;5.22;;;2.10;;
72941;SDS011;69665;55.822;37.330;2023-12-28T13:37:59;5.20;;;1.67;;
72941;SDS011;69665;55.822;37.330;2023-12-28T13:40:27;5.50;;;1.73;;
72941;SDS011;69665;55.822;37.330;2023-12-28T13:42:53;6.05;;;1.52;;
72941;SDS011;69665;55.822;37.330;2023-12-28T13:45:18;6.30;;;2.17;;
72941;SDS011;69665;55.822;37.330;2023-12-28T13:47:44;5.97;;;2.00;;
72941;SDS011;69665;55.822;37.330;2023-12-28T13:50:09;5.18;;;1.98;;
72941;SDS011;69665;55.822;37.330;2023-12-28T13:52:35;5.45;;;2.10;;
72941;SDS011;69665;55.822;37.330;2023-12-28T13:55:01;4.97;;;1.77;;
72941;SDS011;69665;55.822;37.330;2023-12-28T13:57:28;7.78;;;2.25;;
72941;SDS011;69665;55.822;37.330;2023-12-28T13:59:53;5.18;;;1.75;;
72941;SDS011;69665;55.822;37.330;2023-12-28T14:02:21;6.50;;;2.10;;
72941;SDS011;69665;55.822;37.330;2023-12-28T14:04:47;7.05;;;1.83;;
72941;SDS011;69665;55.822;37.330;2023-12-28T14:07:12;6.65;;;2.28;;
72941;SDS011;69665;55.822;37.330;2023-12-28T14:09:38;6.28;;;2.28;;
72941;SDS011;69665;55.822;37.330;2023-12-28T14:12:04;5.85;;;2.30;;
72941;SDS011;69665;55.822;37.330;2023-12-28T14:14:29;4.97;;;1.85;;
72941;SDS011;69665;55.822;37.330;2023-12-28T14:16:55;6.15;;;1.88;;
72941;SDS011;69665;55.822;37.330;2023-12-28T14:19:21;5.03;;;2.10;;
72941;SDS011;69665;55.822;37.330;2023-12-28T14:21:47;5.13;;;2.00;;
72941;SDS011;69665;55.822;37.330;2023-12-28T14:24:12;5.80;;;2.38;;
72941;SDS011;69665;55.822;37.330;2023-12-28T14:26:40;6.10;;;2.08;;
72941;SDS011;69665;55.822;37.330;2023-12-28T14:29:08;7.47;;;2.40;;
72941;SDS011;69665;55.822;37.330;2023-12-28T14:31:34;5.25;;;1.73;;
72941;SDS011;69665;55.822;37.330;2023-12-28T14:34:00;6.25;;;1.90;;
72941;SDS011;69665;55.822;37.330;2023-12-28T14:38:58;6.80;;;2.88;;
72941;SDS011;69665;55.822;37.330;2023-12-28T14:41:25;5.85;;;2.50;;
72941;SDS011;69665;55.822;37.330;2023-12-28T14:43:50;5.22;;;1.98;;
72941;SDS011;69665;55.822;37.330;2023-12-28T14:46:16;6.25;;;2.42;;